sensor_id;sensor_type;location;lat;lon;timestamp;P1;durP1;ratioP1;P2;durP2;ratioP2
21272;SDS011;36726;52.328;10.552;2023-02-04T00:01:54;1.00;;;0.73;;
21272;SDS011;36726;52.328;10.552;2023-02-04T00:04:20;4.13;;;1.08;;
21272;SDS011;36726;52.328;10.552;2023-02-04T00:06:47;1.50;;;0.93;;
21272;SDS011;36726;52.328;10.552;2023-02-04T00:09:13;4.63;;;1.23;;
21272;SDS011;36726;52.328;10.552;2023-02-04T00:11:41;1.77;;;0.80;;
21272;SDS011;36726;52.328;10.552;2023-02-04T00:14:08;2.08;;;0.95;;
21272;SDS011;36726;52.328;10.552;2023-02-04T00:16:34;1.08;;;0.93;;
21272;SDS011;36726;52.328;10.552;2023-02-04T00:19:01;1.08;;;0.85;;
21272;SDS011;36726;52.328;10.552;2023-02-04T00:21:27;1.98;;;0.80;;
21272;SDS011;36726;52.328;10.552;2023-02-04T00:23:54;1.65;;;0.90;;
21272;SDS011;36726;52.328;10.552;2023-02-04T00:26:23;2.40;;;1.13;;
21272;SDS011;36726;52.328;10.552;2023-02-04T00:28:50;1.70;;;1.00;;
21272;SDS011;36726;52.328;10.552;2023-02-04T00:31:16;1.77;;;1.00;;
21272;SDS011;36726;52.328;10.552;2023-02-04T00:33:43;2.65;;;1.33;;
21272;SDS011;36726;52.328;10.552;2023-02-04T00:36:09;2.28;;;0.80;;
21272;SDS011;36726;52.328;10.552;2023-02-04T00:38:36;1.90;;;1.13;;
21272;SDS011;36726;52.328;10.552;2023-02-04T00:41:05;2.47;;;1.10;;
21272;SDS011;36726;52.328;10.552;2023-02-04T00:43:32;2.00;;;1.30;;
21272;SDS011;36726;52.328;10.552;2023-02-04T00:45:58;1.92;;;1.33;;
21272;SDS011;36726;52.328;10.552;2023-02-04T00:48:25;1.35;;;1.00;;
21272;SDS011;36726;52.328;10.552;2023-02-04T00:50:52;1.70;;;0.90;;
21272;SDS011;36726;52.328;10.552;2023-02-04T00:53:19;2.75;;;1.00;;
21272;SDS011;36726;52.328;10.552;2023-02-04T00:55:46;1.08;;;0.80;;
21272;SDS011;36726;52.328;10.552;2023-02-04T00:58:12;1.58;;;0.90;;
21272;SDS011;36726;52.328;10.552;2023-02-04T01:00:39;2.42;;;0.80;;
21272;SDS011;36726;52.328;10.552;2023-02-04T01:03:06;1.02;;;0.80;;
21272;SDS011;36726;52.328;10.552;2023-02-04T01:05:32;1.70;;;0.80;;
21272;SDS011;36726;52.328;10.552;2023-02-04T01:07:59;1.05;;;0.63;;
21272;SDS011;36726;52.328;10.552;2023-02-04T01:10:26;1.25;;;0.75;;
21272;SDS011;36726;52.328;10.552;2023-02-04T01:12:55;2.15;;;0.75;;
21272;SDS011;36726;52.328;10.552;2023-02-04T01:15:21;1.83;;;0.90;;
21272;SDS011;36726;52.328;10.552;2023-02-04T01:17:49;2.10;;;0.80;;
21272;SDS011;36726;52.328;10.552;2023-02-04T01:20:16;1.65;;;0.60;;
21272;SDS011;36726;52.328;10.552;2023-02-04T01:22:42;1.27;;;0.73;;
21272;SDS011;36726;52.328;10.552;2023-02-04T01:25:09;1.60;;;0.47;;
21272;SDS011;36726;52.328;10.552;2023-02-04T01:27:39;0.82;;;0.60;;
21272;SDS011;36726;52.328;10.552;2023-02-04T01:30:06;3.47;;;0.88;;
21272;SDS011;36726;52.328;10.552;2023-02-04T01:32:33;0.80;;;0.60;;
21272;SDS011;36726;52.328;10.552;2023-02-04T01:35:00;1.02;;;0.68;;
21272;SDS011;36726;52.328;10.552;2023-02-04T01:37:27;1.17;;;0.60;;
21272;SDS011;36726;52.328;10.552;2023-02-04T01:39:53;1.63;;;0.55;;
21272;SDS011;36726;52.328;10.552;2023-02-04T01:42:20;1.10;;;0.57;;
21272;SDS011;36726;52.328;10.552;2023-02-04T01:44:47;1.85;;;0.40;;
21272;SDS011;36726;52.328;10.552;2023-02-04T01:47:14;2.15;;;0.50;;
21272;SDS011;36726;52.328;10.552;2023-02-04T01:49:40;0.95;;;0.50;;
21272;SDS011;36726;52.328;10.552;2023-02-04T01:52:08;0.93;;;0.57;;
21272;SDS011;36726;52.328;10.552;2023-02-04T01:54:36;0.90;;;0.50;;
21272;SDS011;36726;52.328;10.552;2023-02-04T01:57:02;0.60;;;0.60;;
21272;SDS011;36726;52.328;10.552;2023-02-04T01:59:29;1.65;;;0.60;;
21272;SDS011;36726;52.328;10.552;2023-02-04T02:01:58;3.08;;;0.70;;
21272;SDS011;36726;52.328;10.552;2023-02-04T02:04:29;0.60;;;0.60;;
21272;SDS011;36726;52.328;10.552;2023-02-04T02:07:01;4.18;;;0.85;;
21272;SDS011;36726;52.328;10.552;2023-02-04T02:09:31;3.67;;;0.70;;
21272;SDS011;36726;52.328;10.552;2023-02-04T02:11:59;1.70;;;0.70;;
21272;SDS011;36726;52.328;10.552;2023-02-04T02:14:28;1.30;;;0.65;;
21272;SDS011;36726;52.328;10.552;2023-02-04T02:16:55;1.52;;;0.80;;
21272;SDS011;36726;52.328;10.552;2023-02-04T02:19:26;4.07;;;0.60;;
21272;SDS011;36726;52.328;10.552;2023-02-04T02:22:02;1.70;;;0.70;;
21272;SDS011;36726;52.328;10.552;2023-02-04T02:24:34;0.95;;;0.70;;
21272;SDS011;36726;52.328;10.552;2023-02-04T02:27:01;2.05;;;0.57;;
21272;SDS011;36726;52.328;10.552;2023-02-04T02:29:32;1.88;;;0.80;;
21272;SDS011;36726;52.328;10.552;2023-02-04T02:31:59;2.38;;;0.70;;
21272;SDS011;36726;52.328;10.552;2023-02-04T02:34:26;2.28;;;0.82;;
21272;SDS011;36726;52.328;10.552;2023-02-04T02:36:54;2.40;;;0.80;;
21272;SDS011;36726;52.328;10.552;2023-02-04T02:39:22;1.48;;;0.60;;
21272;SDS011;36726;52.328;10.552;2023-02-04T02:41:50;2.13;;;0.80;;
21272;SDS011;36726;52.328;10.552;2023-02-04T02:44:16;1.90;;;0.90;;
21272;SDS011;36726;52.328;10.552;2023-02-04T02:46:43;0.50;;;0.43;;
21272;SDS011;36726;52.328;10.552;2023-02-04T02:49:12;1.60;;;0.70;;
21272;SDS011;36726;52.328;10.552;2023-02-04T02:51:42;1.25;;;1.00;;
21272;SDS011;36726;52.328;10.552;2023-02-04T02:54:26;2.13;;;0.80;;
21272;SDS011;36726;52.328;10.552;2023-02-04T02:56:57;1.83;;;0.70;;
21272;SDS011;36726;52.328;10.552;2023-02-04T02:59:24;1.80;;;0.70;;
21272;SDS011;36726;52.328;10.552;2023-02-04T03:01:56;2.75;;;0.80;;
21272;SDS011;36726;52.328;10.552;2023-02-04T03:04:28;2.38;;;1.00;;
21272;SDS011;36726;52.328;10.552;2023-02-04T03:06:56;1.95;;;0.70;;
21272;SDS011;36726;52.328;10.552;2023-02-04T03:09:23;2.83;;;0.70;;
21272;SDS011;36726;52.328;10.552;2023-02-04T03:11:52;2.38;;;0.98;;
21272;SDS011;36726;52.328;10.552;2023-02-04T03:14:19;1.40;;;0.77;;
21272;SDS011;36726;52.328;10.552;2023-02-04T03:16:49;1.40;;;1.00;;
21272;SDS011;36726;52.328;10.552;2023-02-04T03:19:19;5.35;;;1.20;;
21272;SDS011;36726;52.328;10.552;2023-02-04T03:21:45;1.33;;;0.75;;
21272;SDS011;36726;52.328;10.552;2023-02-04T03:24:14;1.33;;;0.80;;
21272;SDS011;36726;52.328;10.552;2023-02-04T03:26:42;1.92;;;0.88;;
21272;SDS011;36726;52.328;10.552;2023-02-04T03:29:10;1.73;;;1.00;;
21272;SDS011;36726;52.328;10.552;2023-02-04T03:31:36;2.92;;;1.15;;
21272;SDS011;36726;52.328;10.552;2023-02-04T03:34:03;1.08;;;0.80;;
21272;SDS011;36726;52.328;10.552;2023-02-04T03:36:30;1.70;;;1.00;;
21272;SDS011;36726;52.328;10.552;2023-02-04T03:38:57;4.18;;;0.90;;
21272;SDS011;36726;52.328;10.552;2023-02-04T03:41:23;2.25;;;0.95;;
21272;SDS011;36726;52.328;10.552;2023-02-04T03:43:50;1.15;;;0.88;;
21272;SDS011;36726;52.328;10.552;2023-02-04T03:46:16;1.10;;;0.80;;
21272;SDS011;36726;52.328;10.552;2023-02-04T03:48:43;1.05;;;0.82;;
21272;SDS011;36726;52.328;10.552;2023-02-04T03:51:09;3.42;;;0.90;;
21272;SDS011;36726;52.328;10.552;2023-02-04T03:53:36;1.98;;;1.00;;
21272;SDS011;36726;52.328;10.552;2023-02-04T03:56:03;3.35;;;0.93;;
21272;SDS011;36726;52.328;10.552;2023-02-04T03:58:30;2.38;;;1.02;;
21272;SDS011;36726;52.328;10.552;2023-02-04T04:00:56;2.90;;;1.15;;
21272;SDS011;36726;52.328;10.552;2023-02-04T04:03:23;2.67;;;0.90;;
21272;SDS011;36726;52.328;10.552;2023-02-04T04:05:49;1.33;;;0.80;;
21272;SDS011;36726;52.328;10.552;2023-02-04T04:08:15;1.98;;;1.02;;
21272;SDS011;36726;52.328;10.552;2023-02-04T04:10:42;2.35;;;0.80;;
21272;SDS011;36726;52.328;10.552;2023-02-04T04:13:08;2.65;;;0.93;;
21272;SDS011;36726;52.328;10.552;2023-02-04T04:15:38;2.97;;;0.90;;
21272;SDS011;36726;52.328;10.552;2023-02-04T04:18:04;1.95;;;0.90;;
21272;SDS011;36726;52.328;10.552;2023-02-04T04:20:32;2.85;;;0.95;;
21272;SDS011;36726;52.328;10.552;2023-02-04T04:22:59;7.70;;;1.20;;
21272;SDS011;36726;52.328;10.552;2023-02-04T04:25:26;1.35;;;0.80;;
21272;SDS011;36726;52.328;10.552;2023-02-04T04:27:52;1.92;;;1.00;;
21272;SDS011;36726;52.328;10.552;2023-02-04T04:30:19;2.00;;;0.88;;
21272;SDS011;36726;52.328;10.552;2023-02-04T04:32:46;4.53;;;0.95;;
21272;SDS011;36726;52.328;10.552;2023-02-04T04:35:12;1.42;;;0.88;;
21272;SDS011;36726;52.328;10.552;2023-02-04T04:37:39;2.55;;;1.00;;
21272;SDS011;36726;52.328;10.552;2023-02-04T04:40:05;1.45;;;1.10;;
21272;SDS011;36726;52.328;10.552;2023-02-04T04:42:32;2.08;;;1.02;;
21272;SDS011;36726;52.328;10.552;2023-02-04T04:44:59;2.58;;;1.00;;
21272;SDS011;36726;52.328;10.552;2023-02-04T04:47:25;3.08;;;1.05;;
21272;SDS011;36726;52.328;10.552;2023-02-04T04:49:52;2.90;;;1.10;;
21272;SDS011;36726;52.328;10.552;2023-02-04T04:52:18;1.58;;;1.02;;
21272;SDS011;36726;52.328;10.552;2023-02-04T04:54:45;1.55;;;0.98;;
21272;SDS011;36726;52.328;10.552;2023-02-04T04:57:11;3.17;;;1.30;;
21272;SDS011;36726;52.328;10.552;2023-02-04T04:59:38;2.63;;;1.30;;
21272;SDS011;36726;52.328;10.552;2023-02-04T05:02:04;2.42;;;1.05;;
21272;SDS011;36726;52.328;10.552;2023-02-04T05:04:31;1.30;;;0.90;;
21272;SDS011;36726;52.328;10.552;2023-02-04T05:06:58;1.70;;;1.15;;
21272;SDS011;36726;52.328;10.552;2023-02-04T05:09:24;0.93;;;0.82;;
21272;SDS011;36726;52.328;10.552;2023-02-04T05:11:52;3.67;;;1.20;;
21272;SDS011;36726;52.328;10.552;2023-02-04T05:14:18;2.25;;;1.10;;
21272;SDS011;36726;52.328;10.552;2023-02-04T05:16:45;3.10;;;1.10;;
21272;SDS011;36726;52.328;10.552;2023-02-04T05:19:11;4.00;;;1.67;;
21272;SDS011;36726;52.328;10.552;2023-02-04T05:21:38;4.40;;;1.60;;
21272;SDS011;36726;52.328;10.552;2023-02-04T05:24:04;2.90;;;1.30;;
21272;SDS011;36726;52.328;10.552;2023-02-04T05:26:31;2.63;;;1.33;;
21272;SDS011;36726;52.328;10.552;2023-02-04T05:28:58;1.00;;;0.90;;
21272;SDS011;36726;52.328;10.552;2023-02-04T05:31:25;2.42;;;1.33;;
21272;SDS011;36726;52.328;10.552;2023-02-04T05:33:53;1.35;;;0.90;;
21272;SDS011;36726;52.328;10.552;2023-02-04T05:36:19;1.95;;;1.20;;
21272;SDS011;36726;52.328;10.552;2023-02-04T05:38:47;3.05;;;1.10;;
21272;SDS011;36726;52.328;10.552;2023-02-04T05:41:13;2.30;;;1.30;;
21272;SDS011;36726;52.328;10.552;2023-02-04T05:43:40;2.65;;;1.30;;
21272;SDS011;36726;52.328;10.552;2023-02-04T05:46:06;2.22;;;1.05;;
21272;SDS011;36726;52.328;10.552;2023-02-04T05:48:33;2.63;;;1.10;;
21272;SDS011;36726;52.328;10.552;2023-02-04T05:51:01;2.70;;;1.00;;
21272;SDS011;36726;52.328;10.552;2023-02-04T05:53:27;1.25;;;1.05;;
21272;SDS011;36726;52.328;10.552;2023-02-04T05:55:54;1.35;;;0.90;;
21272;SDS011;36726;52.328;10.552;2023-02-04T05:58:21;2.15;;;1.30;;
21272;SDS011;36726;52.328;10.552;2023-02-04T06:00:47;1.80;;;0.90;;
21272;SDS011;36726;52.328;10.552;2023-02-04T06:03:14;2.97;;;1.23;;
21272;SDS011;36726;52.328;10.552;2023-02-04T06:05:40;2.00;;;0.80;;
21272;SDS011;36726;52.328;10.552;2023-02-04T06:08:09;1.70;;;1.08;;
21272;SDS011;36726;52.328;10.552;2023-02-04T06:10:36;3.67;;;1.15;;
21272;SDS011;36726;52.328;10.552;2023-02-04T06:13:02;2.28;;;1.20;;
21272;SDS011;36726;52.328;10.552;2023-02-04T06:15:29;1.70;;;1.20;;
21272;SDS011;36726;52.328;10.552;2023-02-04T06:17:55;2.28;;;1.20;;
21272;SDS011;36726;52.328;10.552;2023-02-04T06:20:23;2.55;;;1.10;;
21272;SDS011;36726;52.328;10.552;2023-02-04T06:22:50;3.17;;;1.33;;
21272;SDS011;36726;52.328;10.552;2023-02-04T06:25:17;2.45;;;1.38;;
21272;SDS011;36726;52.328;10.552;2023-02-04T06:27:43;2.33;;;1.35;;
21272;SDS011;36726;52.328;10.552;2023-02-04T06:30:10;2.63;;;1.48;;
21272;SDS011;36726;52.328;10.552;2023-02-04T06:32:37;2.13;;;1.48;;
21272;SDS011;36726;52.328;10.552;2023-02-04T06:35:04;3.63;;;1.65;;
21272;SDS011;36726;52.328;10.552;2023-02-04T06:37:31;1.88;;;1.30;;
21272;SDS011;36726;52.328;10.552;2023-02-04T06:39:57;4.55;;;1.50;;
21272;SDS011;36726;52.328;10.552;2023-02-04T06:42:24;3.40;;;1.40;;
21272;SDS011;36726;52.328;10.552;2023-02-04T06:44:51;2.17;;;1.38;;
21272;SDS011;36726;52.328;10.552;2023-02-04T06:47:19;2.45;;;1.35;;
21272;SDS011;36726;52.328;10.552;2023-02-04T06:49:45;1.65;;;1.23;;
21272;SDS011;36726;52.328;10.552;2023-02-04T06:52:12;3.25;;;1.40;;
21272;SDS011;36726;52.328;10.552;2023-02-04T06:54:38;2.67;;;1.45;;
21272;SDS011;36726;52.328;10.552;2023-02-04T06:57:05;2.72;;;1.20;;
21272;SDS011;36726;52.328;10.552;2023-02-04T06:59:32;3.05;;;1.23;;
21272;SDS011;36726;52.328;10.552;2023-02-04T07:02:00;4.72;;;1.30;;
21272;SDS011;36726;52.328;10.552;2023-02-04T07:04:27;3.28;;;1.40;;
21272;SDS011;36726;52.328;10.552;2023-02-04T07:06:54;1.55;;;1.25;;
21272;SDS011;36726;52.328;10.552;2023-02-04T07:09:20;1.73;;;1.50;;
21272;SDS011;36726;52.328;10.552;2023-02-04T07:11:47;2.80;;;1.20;;
21272;SDS011;36726;52.328;10.552;2023-02-04T07:14:14;3.63;;;1.30;;
21272;SDS011;36726;52.328;10.552;2023-02-04T07:16:40;2.33;;;1.20;;
21272;SDS011;36726;52.328;10.552;2023-02-04T07:19:07;2.30;;;1.30;;
21272;SDS011;36726;52.328;10.552;2023-02-04T07:21:33;2.47;;;1.50;;
21272;SDS011;36726;52.328;10.552;2023-02-04T07:24:00;2.83;;;1.50;;
21272;SDS011;36726;52.328;10.552;2023-02-04T07:26:26;1.95;;;1.38;;
21272;SDS011;36726;52.328;10.552;2023-02-04T07:28:53;1.77;;;1.20;;
21272;SDS011;36726;52.328;10.552;2023-02-04T07:31:20;2.75;;;1.75;;
21272;SDS011;36726;52.328;10.552;2023-02-04T07:33:46;4.20;;;1.70;;
21272;SDS011;36726;52.328;10.552;2023-02-04T07:36:13;3.53;;;2.17;;
21272;SDS011;36726;52.328;10.552;2023-02-04T07:38:40;3.88;;;2.50;;
21272;SDS011;36726;52.328;10.552;2023-02-04T07:41:07;6.05;;;2.38;;
21272;SDS011;36726;52.328;10.552;2023-02-04T07:43:33;3.15;;;2.10;;
21272;SDS011;36726;52.328;10.552;2023-02-04T07:46:00;3.60;;;1.85;;
21272;SDS011;36726;52.328;10.552;2023-02-04T07:48:26;5.47;;;2.00;;
21272;SDS011;36726;52.328;10.552;2023-02-04T07:50:53;2.60;;;1.73;;
21272;SDS011;36726;52.328;10.552;2023-02-04T07:53:19;2.35;;;1.48;;
21272;SDS011;36726;52.328;10.552;2023-02-04T07:55:46;2.35;;;1.50;;
21272;SDS011;36726;52.328;10.552;2023-02-04T07:58:12;4.60;;;1.50;;
21272;SDS011;36726;52.328;10.552;2023-02-04T08:00:39;2.92;;;1.58;;
21272;SDS011;36726;52.328;10.552;2023-02-04T08:03:05;2.67;;;1.88;;
21272;SDS011;36726;52.328;10.552;2023-02-04T08:05:32;3.85;;;2.10;;
21272;SDS011;36726;52.328;10.552;2023-02-04T08:07:58;3.65;;;1.75;;
21272;SDS011;36726;52.328;10.552;2023-02-04T08:10:27;6.10;;;2.20;;
21272;SDS011;36726;52.328;10.552;2023-02-04T08:12:53;4.07;;;2.05;;
21272;SDS011;36726;52.328;10.552;2023-02-04T08:15:22;9.20;;;2.70;;
21272;SDS011;36726;52.328;10.552;2023-02-04T08:17:49;7.25;;;2.40;;
21272;SDS011;36726;52.328;10.552;2023-02-04T08:20:15;4.55;;;2.40;;
21272;SDS011;36726;52.328;10.552;2023-02-04T08:22:43;6.53;;;2.17;;
21272;SDS011;36726;52.328;10.552;2023-02-04T08:25:10;2.10;;;1.70;;
21272;SDS011;36726;52.328;10.552;2023-02-04T08:27:38;3.78;;;2.00;;
21272;SDS011;36726;52.328;10.552;2023-02-04T08:30:04;3.63;;;1.70;;
21272;SDS011;36726;52.328;10.552;2023-02-04T08:32:31;3.80;;;1.95;;
21272;SDS011;36726;52.328;10.552;2023-02-04T08:34:58;4.13;;;2.10;;
21272;SDS011;36726;52.328;10.552;2023-02-04T08:37:25;5.85;;;2.60;;
21272;SDS011;36726;52.328;10.552;2023-02-04T08:39:51;4.53;;;2.40;;
21272;SDS011;36726;52.328;10.552;2023-02-04T08:42:18;3.10;;;1.90;;
21272;SDS011;36726;52.328;10.552;2023-02-04T08:44:45;6.43;;;1.92;;
21272;SDS011;36726;52.328;10.552;2023-02-04T08:47:11;2.50;;;1.83;;
21272;SDS011;36726;52.328;10.552;2023-02-04T08:49:38;3.70;;;1.77;;
21272;SDS011;36726;52.328;10.552;2023-02-04T08:52:04;2.53;;;1.50;;
21272;SDS011;36726;52.328;10.552;2023-02-04T08:54:33;1.77;;;1.42;;
21272;SDS011;36726;52.328;10.552;2023-02-04T08:57:00;5.90;;;1.55;;
21272;SDS011;36726;52.328;10.552;2023-02-04T08:59:27;2.05;;;1.50;;
21272;SDS011;36726;52.328;10.552;2023-02-04T09:01:54;2.60;;;1.75;;
21272;SDS011;36726;52.328;10.552;2023-02-04T09:04:21;5.40;;;1.70;;
21272;SDS011;36726;52.328;10.552;2023-02-04T09:06:49;4.07;;;1.88;;
21272;SDS011;36726;52.328;10.552;2023-02-04T09:09:17;4.00;;;1.67;;
21272;SDS011;36726;52.328;10.552;2023-02-04T09:11:47;2.25;;;1.52;;
21272;SDS011;36726;52.328;10.552;2023-02-04T09:14:14;2.80;;;1.52;;
21272;SDS011;36726;52.328;10.552;2023-02-04T09:16:40;2.85;;;1.63;;
21272;SDS011;36726;52.328;10.552;2023-02-04T09:19:07;3.90;;;2.00;;
21272;SDS011;36726;52.328;10.552;2023-02-04T09:21:36;3.40;;;1.58;;
21272;SDS011;36726;52.328;10.552;2023-02-04T09:24:02;3.33;;;1.90;;
21272;SDS011;36726;52.328;10.552;2023-02-04T09:26:29;3.70;;;1.70;;
21272;SDS011;36726;52.328;10.552;2023-02-04T09:28:56;3.78;;;1.55;;
21272;SDS011;36726;52.328;10.552;2023-02-04T09:31:22;2.92;;;1.35;;
21272;SDS011;36726;52.328;10.552;2023-02-04T09:33:49;3.88;;;1.40;;
21272;SDS011;36726;52.328;10.552;2023-02-04T09:36:16;2.08;;;1.42;;
21272;SDS011;36726;52.328;10.552;2023-02-04T09:38:42;5.03;;;1.58;;
21272;SDS011;36726;52.328;10.552;2023-02-04T09:41:09;4.03;;;1.13;;
21272;SDS011;36726;52.328;10.552;2023-02-04T09:43:39;1.92;;;1.27;;
21272;SDS011;36726;52.328;10.552;2023-02-04T09:46:10;2.58;;;1.42;;
21272;SDS011;36726;52.328;10.552;2023-02-04T09:48:46;1.35;;;1.10;;
21272;SDS011;36726;52.328;10.552;2023-02-04T09:51:17;3.40;;;1.17;;
21272;SDS011;36726;52.328;10.552;2023-02-04T09:53:48;2.72;;;1.05;;
21272;SDS011;36726;52.328;10.552;2023-02-04T09:56:18;1.98;;;1.27;;
21272;SDS011;36726;52.328;10.552;2023-02-04T09:58:45;1.38;;;0.95;;
21272;SDS011;36726;52.328;10.552;2023-02-04T10:01:14;2.03;;;0.93;;
21272;SDS011;36726;52.328;10.552;2023-02-04T10:03:43;1.92;;;1.08;;
21272;SDS011;36726;52.328;10.552;2023-02-04T10:06:13;1.50;;;1.00;;
21272;SDS011;36726;52.328;10.552;2023-02-04T10:08:44;1.85;;;0.95;;
21272;SDS011;36726;52.328;10.552;2023-02-04T10:11:12;1.90;;;0.95;;
21272;SDS011;36726;52.328;10.552;2023-02-04T10:13:42;2.15;;;1.10;;
21272;SDS011;36726;52.328;10.552;2023-02-04T10:16:14;1.67;;;1.02;;
21272;SDS011;36726;52.328;10.552;2023-02-04T10:18:44;2.17;;;1.17;;
21272;SDS011;36726;52.328;10.552;2023-02-04T10:21:19;4.63;;;1.35;;
21272;SDS011;36726;52.328;10.552;2023-02-04T10:23:50;2.28;;;1.02;;
21272;SDS011;36726;52.328;10.552;2023-02-04T10:26:20;2.22;;;1.20;;
21272;SDS011;36726;52.328;10.552;2023-02-04T10:28:47;1.83;;;1.10;;
21272;SDS011;36726;52.328;10.552;2023-02-04T10:36:44;1.67;;;1.20;;
21272;SDS011;36726;52.328;10.552;2023-02-04T10:39:18;3.33;;;1.77;;
21272;SDS011;36726;52.328;10.552;2023-02-04T10:41:52;1.83;;;1.20;;
21272;SDS011;36726;52.328;10.552;2023-02-04T10:44:27;1.95;;;1.10;;
21272;SDS011;36726;52.328;10.552;2023-02-04T10:47:12;2.03;;;0.90;;
21272;SDS011;36726;52.328;10.552;2023-02-04T10:49:52;1.98;;;1.10;;
21272;SDS011;36726;52.328;10.552;2023-02-04T10:52:38;1.92;;;1.02;;
21272;SDS011;36726;52.328;10.552;2023-02-04T10:55:09;2.58;;;1.00;;
21272;SDS011;36726;52.328;10.552;2023-02-04T10:57:41;3.17;;;0.93;;
21272;SDS011;36726;52.328;10.552;2023-02-04T11:00:20;1.65;;;0.98;;
21272;SDS011;36726;52.328;10.552;2023-02-04T11:02:57;1.33;;;0.75;;
21272;SDS011;36726;52.328;10.552;2023-02-04T11:05:30;2.08;;;0.77;;
21272;SDS011;36726;52.328;10.552;2023-02-04T11:07:58;2.22;;;0.93;;
21272;SDS011;36726;52.328;10.552;2023-02-04T11:10:29;3.72;;;0.70;;
21272;SDS011;36726;52.328;10.552;2023-02-04T11:13:03;2.28;;;0.90;;
21272;SDS011;36726;52.328;10.552;2023-02-04T11:15:54;1.00;;;0.68;;
21272;SDS011;36726;52.328;10.552;2023-02-04T11:18:42;0.75;;;0.60;;
21272;SDS011;36726;52.328;10.552;2023-02-04T11:21:13;2.38;;;0.50;;
21272;SDS011;36726;52.328;10.552;2023-02-04T11:26:37;1.83;;;0.60;;
21272;SDS011;36726;52.328;10.552;2023-02-04T11:31:40;3.17;;;0.60;;
21272;SDS011;36726;52.328;10.552;2023-02-04T11:39:23;0.88;;;0.52;;
21272;SDS011;36726;52.328;10.552;2023-02-04T11:41:54;1.45;;;0.50;;
21272;SDS011;36726;52.328;10.552;2023-02-04T11:44:20;1.05;;;0.50;;
21272;SDS011;36726;52.328;10.552;2023-02-04T11:46:49;1.75;;;0.50;;
21272;SDS011;36726;52.328;10.552;2023-02-04T11:49:22;2.15;;;0.52;;
21272;SDS011;36726;52.328;10.552;2023-02-04T11:52:02;1.38;;;0.40;;
21272;SDS011;36726;52.328;10.552;2023-02-04T11:54:34;1.20;;;0.50;;
21272;SDS011;36726;52.328;10.552;2023-02-04T11:57:01;1.67;;;0.60;;
21272;SDS011;36726;52.328;10.552;2023-02-04T11:59:28;1.83;;;0.73;;
21272;SDS011;36726;52.328;10.552;2023-02-04T12:02:14;0.95;;;0.40;;
21272;SDS011;36726;52.328;10.552;2023-02-04T12:04:53;1.05;;;0.40;;
21272;SDS011;36726;52.328;10.552;2023-02-04T12:07:37;1.30;;;0.30;;
21272;SDS011;36726;52.328;10.552;2023-02-04T12:10:13;2.75;;;0.52;;
21272;SDS011;36726;52.328;10.552;2023-02-04T12:12:44;2.30;;;0.40;;
21272;SDS011;36726;52.328;10.552;2023-02-04T12:15:19;3.75;;;0.50;;
21272;SDS011;36726;52.328;10.552;2023-02-04T12:18:02;0.70;;;0.40;;
21272;SDS011;36726;52.328;10.552;2023-02-04T12:20:30;0.95;;;0.50;;
21272;SDS011;36726;52.328;10.552;2023-02-04T12:22:56;0.60;;;0.50;;
21272;SDS011;36726;52.328;10.552;2023-02-04T12:25:23;0.93;;;0.65;;
21272;SDS011;36726;52.328;10.552;2023-02-04T12:27:54;1.30;;;0.38;;
21272;SDS011;36726;52.328;10.552;2023-02-04T12:30:21;0.60;;;0.38;;
21272;SDS011;36726;52.328;10.552;2023-02-04T12:32:48;1.40;;;0.60;;
21272;SDS011;36726;52.328;10.552;2023-02-04T12:35:15;2.80;;;0.60;;
21272;SDS011;36726;52.328;10.552;2023-02-04T12:37:42;0.65;;;0.40;;
21272;SDS011;36726;52.328;10.552;2023-02-04T12:40:16;1.77;;;0.60;;
21272;SDS011;36726;52.328;10.552;2023-02-04T12:42:44;3.05;;;0.40;;
21272;SDS011;36726;52.328;10.552;2023-02-04T12:45:11;1.00;;;0.50;;
21272;SDS011;36726;52.328;10.552;2023-02-04T12:47:39;0.80;;;0.50;;
21272;SDS011;36726;52.328;10.552;2023-02-04T12:50:07;1.35;;;0.32;;
21272;SDS011;36726;52.328;10.552;2023-02-04T12:52:35;1.60;;;0.60;;
21272;SDS011;36726;52.328;10.552;2023-02-04T12:55:02;0.60;;;0.40;;
21272;SDS011;36726;52.328;10.552;2023-02-04T12:57:30;1.85;;;0.63;;
21272;SDS011;36726;52.328;10.552;2023-02-04T12:59:57;1.65;;;0.50;;
21272;SDS011;36726;52.328;10.552;2023-02-04T13:02:26;1.65;;;0.60;;
21272;SDS011;36726;52.328;10.552;2023-02-04T13:04:53;0.77;;;0.40;;
21272;SDS011;36726;52.328;10.552;2023-02-04T13:07:20;1.00;;;0.70;;
21272;SDS011;36726;52.328;10.552;2023-02-04T13:09:48;1.60;;;0.40;;
21272;SDS011;36726;52.328;10.552;2023-02-04T13:12:15;1.98;;;0.70;;
21272;SDS011;36726;52.328;10.552;2023-02-04T13:14:42;0.65;;;0.50;;
21272;SDS011;36726;52.328;10.552;2023-02-04T13:17:09;0.77;;;0.40;;
21272;SDS011;36726;52.328;10.552;2023-02-04T13:19:35;1.20;;;0.70;;
21272;SDS011;36726;52.328;10.552;2023-02-04T13:22:02;0.80;;;0.50;;
21272;SDS011;36726;52.328;10.552;2023-02-04T13:24:29;1.02;;;0.47;;
21272;SDS011;36726;52.328;10.552;2023-02-04T13:26:56;0.82;;;0.45;;
21272;SDS011;36726;52.328;10.552;2023-02-04T13:29:22;2.40;;;0.70;;
21272;SDS011;36726;52.328;10.552;2023-02-04T13:31:49;0.68;;;0.32;;
21272;SDS011;36726;52.328;10.552;2023-02-04T13:34:17;1.60;;;0.77;;
21272;SDS011;36726;52.328;10.552;2023-02-04T13:36:44;0.40;;;0.40;;
21272;SDS011;36726;52.328;10.552;2023-02-04T13:39:11;1.10;;;0.57;;
21272;SDS011;36726;52.328;10.552;2023-02-04T13:41:37;1.65;;;0.70;;
21272;SDS011;36726;52.328;10.552;2023-02-04T13:44:04;1.13;;;0.70;;
21272;SDS011;36726;52.328;10.552;2023-02-04T13:46:30;0.85;;;0.50;;
21272;SDS011;36726;52.328;10.552;2023-02-04T13:48:58;0.45;;;0.40;;
21272;SDS011;36726;52.328;10.552;2023-02-04T13:51:25;0.80;;;0.52;;
21272;SDS011;36726;52.328;10.552;2023-02-04T13:53:52;0.65;;;0.47;;
21272;SDS011;36726;52.328;10.552;2023-02-04T13:56:19;2.42;;;0.40;;
21272;SDS011;36726;52.328;10.552;2023-02-04T13:58:45;0.70;;;0.43;;
21272;SDS011;36726;52.328;10.552;2023-02-04T14:01:12;3.90;;;0.60;;
21272;SDS011;36726;52.328;10.552;2023-02-04T14:03:39;1.25;;;0.50;;
21272;SDS011;36726;52.328;10.552;2023-02-04T14:06:07;0.55;;;0.38;;
21272;SDS011;36726;52.328;10.552;2023-02-04T14:08:34;1.25;;;0.60;;
21272;SDS011;36726;52.328;10.552;2023-02-04T14:11:01;0.52;;;0.20;;
21272;SDS011;36726;52.328;10.552;2023-02-04T14:13:28;1.02;;;0.32;;
21272;SDS011;36726;52.328;10.552;2023-02-04T14:15:54;0.65;;;0.40;;
21272;SDS011;36726;52.328;10.552;2023-02-04T14:18:21;1.05;;;0.40;;
21272;SDS011;36726;52.328;10.552;2023-02-04T14:20:47;1.50;;;0.40;;
21272;SDS011;36726;52.328;10.552;2023-02-04T14:23:14;1.23;;;0.50;;
21272;SDS011;36726;52.328;10.552;2023-02-04T14:25:41;0.57;;;0.30;;
21272;SDS011;36726;52.328;10.552;2023-02-04T14:28:07;1.90;;;0.22;;
21272;SDS011;36726;52.328;10.552;2023-02-04T14:30:34;0.65;;;0.30;;
21272;SDS011;36726;52.328;10.552;2023-02-04T14:33:01;0.68;;;0.30;;
21272;SDS011;36726;52.328;10.552;2023-02-04T14:35:28;3.85;;;0.50;;
21272;SDS011;36726;52.328;10.552;2023-02-04T14:37:55;1.45;;;0.40;;
21272;SDS011;36726;52.328;10.552;2023-02-04T14:40:22;1.25;;;0.60;;
21272;SDS011;36726;52.328;10.552;2023-02-04T14:42:48;0.50;;;0.25;;
21272;SDS011;36726;52.328;10.552;2023-02-04T14:45:15;0.70;;;0.40;;
21272;SDS011;36726;52.328;10.552;2023-02-04T14:47:42;0.90;;;0.40;;
21272;SDS011;36726;52.328;10.552;2023-02-04T14:50:11;0.65;;;0.47;;
21272;SDS011;36726;52.328;10.552;2023-02-04T14:52:40;1.90;;;1.20;;
21272;SDS011;36726;52.328;10.552;2023-02-04T14:55:07;1.90;;;0.70;;